createdAt,value
2024-01-20T00:01:29.412Z,103.35
2024-01-20T00:03:59.438Z,108.40
2024-01-20T00:06:27.142Z,107.10
2024-01-20T00:08:57.440Z,97.30
2024-01-20T00:11:25.206Z,101.97
2024-01-20T00:13:53.752Z,105.13
2024-01-20T00:16:21.877Z,107.00
2024-01-20T00:18:51.533Z,97.75
2024-01-20T00:21:20.772Z,100.07
2024-01-20T00:23:48.751Z,103.00
2024-01-20T00:26:17.615Z,101.63
2024-01-20T00:28:45.694Z,85.68
2024-01-20T00:31:13.968Z,95.13
2024-01-20T00:33:42.713Z,103.70
2024-01-20T00:36:10.942Z,104.13
2024-01-20T00:38:43.485Z,84.75
2024-01-20T00:41:12.543Z,96.83
2024-01-20T00:43:41.520Z,100.80
2024-01-20T00:46:10.034Z,96.63
2024-01-20T00:48:38.494Z,106.50
2024-01-20T00:51:06.592Z,95.80
2024-01-20T00:53:34.487Z,100.47
2024-01-20T00:56:03.917Z,98.80
2024-01-20T00:58:32.509Z,98.20
2024-01-20T01:01:00.280Z,102.77
2024-01-20T01:03:28.050Z,102.05
2024-01-20T01:05:56.548Z,98.40
2024-01-20T01:08:24.620Z,102.80
2024-01-20T01:10:52.526Z,101.18
2024-01-20T01:13:21.585Z,101.28
2024-01-20T01:15:53.966Z,93.30
2024-01-20T01:18:22.001Z,95.00
2024-01-20T01:20:50.558Z,96.75
2024-01-20T01:23:18.358Z,108.10
2024-01-20T01:25:52.550Z,98.78
2024-01-20T01:28:21.718Z,92.97
2024-01-20T01:30:49.839Z,98.20
2024-01-20T01:33:19.009Z,100.80
2024-01-20T01:35:47.115Z,90.93
2024-01-20T01:38:15.640Z,91.88
2024-01-20T01:40:43.350Z,90.80
2024-01-20T01:43:11.554Z,101.50
2024-01-20T01:45:41.276Z,86.13
2024-01-20T01:48:09.597Z,95.28
2024-01-20T01:50:37.762Z,91.13
2024-01-20T01:53:06.656Z,90.65
2024-01-20T01:55:35.947Z,97.43
2024-01-20T01:58:05.554Z,94.43
2024-01-20T02:00:33.526Z,92.78
2024-01-20T02:03:03.592Z,103.18
2024-01-20T02:05:31.253Z,108.13
2024-01-20T02:08:00.548Z,95.90
2024-01-20T02:10:28.440Z,98.88
2024-01-20T02:12:56.554Z,92.70
2024-01-20T02:15:25.311Z,105.10
2024-01-20T02:17:53.674Z,96.22
2024-01-20T02:20:24.153Z,95.03
2024-01-20T02:22:53.266Z,87.68
2024-01-20T02:25:21.607Z,97.78
2024-01-20T02:27:49.425Z,96.25
2024-01-20T02:30:17.142Z,101.75
2024-01-20T02:32:45.684Z,95.10
2024-01-20T02:35:13.508Z,95.78
2024-01-20T02:37:41.608Z,96.07
2024-01-20T02:40:11.404Z,101.60
2024-01-20T02:42:39.098Z,94.50
2024-01-20T02:45:08.671Z,92.05
2024-01-20T02:47:36.431Z,83.67
2024-01-20T02:50:04.717Z,92.80
2024-01-20T02:52:32.440Z,90.93
2024-01-20T02:55:00.695Z,89.72
2024-01-20T02:57:29.887Z,91.10
2024-01-20T02:59:58.646Z,86.18
2024-01-20T03:02:26.352Z,83.10
2024-01-20T03:04:54.633Z,86.82
2024-01-20T03:07:22.322Z,84.73
2024-01-20T03:09:50.632Z,86.57
2024-01-20T03:12:18.305Z,80.07
2024-01-20T03:14:47.626Z,83.65
2024-01-20T03:17:15.281Z,86.82
2024-01-20T03:19:44.007Z,86.90
2024-01-20T03:22:11.748Z,84.78
2024-01-20T03:24:39.735Z,84.75
2024-01-20T03:27:07.551Z,76.70
2024-01-20T03:29:35.660Z,82.30
2024-01-20T03:32:05.041Z,80.85
2024-01-20T03:34:33.014Z,78.85
2024-01-20T03:37:01.666Z,85.60
2024-01-20T03:39:29.373Z,82.63
2024-01-20T03:41:57.693Z,79.00
2024-01-20T03:44:25.703Z,83.35
2024-01-20T03:46:53.683Z,55.05
2024-01-20T03:49:22.888Z,78.13
2024-01-20T03:51:50.855Z,79.80
2024-01-20T03:54:18.569Z,88.43
2024-01-20T03:56:46.690Z,80.57
2024-01-20T03:59:14.332Z,84.28
2024-01-20T04:01:42.683Z,85.20
2024-01-20T04:04:10.916Z,84.57
2024-01-20T04:06:40.724Z,85.68
2024-01-20T04:09:08.583Z,85.50
2024-01-20T04:11:36.382Z,90.70
2024-01-20T04:14:04.700Z,90.10
2024-01-20T04:16:32.695Z,83.28
2024-01-20T04:19:00.870Z,83.70
2024-01-20T04:21:28.697Z,83.18
2024-01-20T04:23:57.817Z,77.05
2024-01-20T04:26:25.729Z,84.95
2024-01-20T04:28:53.390Z,80.93
2024-01-20T04:31:21.168Z,85.68
2024-01-20T04:33:49.796Z,80.32
2024-01-20T04:36:17.529Z,80.90
2024-01-20T04:38:45.361Z,81.53
2024-01-20T04:41:14.706Z,82.97
2024-01-20T04:43:43.179Z,78.10
2024-01-20T04:46:11.725Z,79.50
2024-01-20T04:48:39.516Z,77.53
2024-01-20T04:51:07.739Z,78.72
2024-01-20T04:53:35.763Z,88.65
2024-01-20T04:56:04.698Z,82.28
2024-01-20T04:58:34.757Z,81.60
2024-01-20T05:01:02.735Z,81.85
2024-01-20T05:03:30.779Z,83.13
2024-01-20T05:05:58.563Z,78.63
2024-01-20T05:08:27.745Z,85.68
2024-01-20T05:10:55.423Z,79.17
2024-01-20T05:13:23.342Z,76.35
2024-01-20T05:15:54.763Z,85.75
2024-01-20T05:18:22.915Z,81.32
2024-01-20T05:20:50.739Z,86.35
2024-01-20T05:23:19.764Z,82.30
2024-01-20T05:25:47.787Z,85.85
2024-01-20T05:31:33.273Z,86.60
2024-01-20T05:34:01.352Z,86.82
2024-01-20T05:36:30.352Z,77.72
2024-01-20T05:38:58.814Z,88.57
2024-01-20T05:41:26.536Z,84.25
2024-01-20T05:43:55.098Z,88.03
2024-01-20T05:46:22.797Z,90.68
2024-01-20T05:48:53.041Z,88.75
2024-01-20T05:51:20.884Z,98.22
2024-01-20T05:53:48.581Z,89.38
2024-01-20T05:56:17.773Z,94.15
2024-01-20T05:58:45.568Z,93.15
2024-01-20T06:01:14.843Z,92.68
2024-01-20T06:03:42.803Z,86.30
2024-01-20T06:06:12.520Z,88.80
2024-01-20T06:08:40.937Z,80.18
2024-01-20T06:11:08.585Z,86.70
2024-01-20T06:13:36.821Z,86.17
2024-01-20T06:16:04.793Z,87.22
2024-01-20T06:18:32.915Z,91.23
2024-01-20T06:21:01.576Z,89.33
2024-01-20T06:23:30.739Z,96.43
2024-01-20T06:25:59.862Z,96.95
2024-01-20T06:28:27.590Z,91.32
2024-01-20T06:30:55.826Z,98.50
2024-01-20T06:33:23.676Z,88.53
2024-01-20T06:35:52.989Z,90.78
2024-01-20T06:38:21.028Z,97.18
2024-01-20T06:40:50.050Z,95.45
2024-01-20T06:43:17.865Z,99.45
2024-01-20T06:45:47.213Z,102.03
2024-01-20T06:48:14.991Z,94.00
2024-01-20T06:50:45.868Z,87.17
2024-01-20T06:53:13.589Z,93.13
2024-01-20T06:55:41.273Z,93.53
2024-01-20T06:58:10.456Z,98.78
2024-01-20T07:00:38.926Z,89.22
2024-01-20T07:03:06.755Z,98.15
2024-01-20T07:05:34.886Z,101.80
2024-01-20T07:08:03.153Z,96.20
2024-01-20T07:10:30.911Z,101.25
2024-01-20T07:12:58.568Z,100.78
2024-01-20T07:15:27.927Z,96.47
2024-01-20T07:17:57.122Z,100.97
2024-01-20T07:20:25.874Z,89.85
2024-01-20T07:22:53.621Z,97.70
2024-01-20T07:25:21.282Z,104.33
2024-01-20T07:27:49.901Z,96.22
2024-01-20T07:30:17.813Z,93.37
2024-01-20T07:32:47.907Z,96.90
2024-01-20T07:35:15.642Z,98.90
2024-01-20T07:37:44.063Z,91.88
2024-01-20T07:40:12.526Z,97.15
2024-01-20T07:42:42.092Z,104.85
2024-01-20T07:45:10.653Z,98.75
2024-01-20T07:47:38.419Z,103.70
2024-01-20T07:52:55.931Z,107.03
2024-01-20T07:55:23.621Z,102.97
2024-01-20T07:57:52.000Z,107.63
2024-01-20T08:00:20.377Z,98.18
2024-01-20T08:02:48.938Z,105.85
2024-01-20T08:05:16.812Z,109.97
2024-01-20T08:07:44.978Z,106.25
2024-01-20T08:10:14.429Z,108.45
2024-01-20T08:12:42.718Z,100.90
2024-01-20T08:15:11.948Z,103.43
2024-01-20T08:17:41.403Z,104.07
2024-01-20T08:20:11.746Z,107.13
2024-01-20T08:22:39.974Z,102.65
2024-01-20T08:25:09.534Z,104.13
2024-01-20T08:27:38.957Z,110.13
2024-01-20T08:30:07.989Z,109.15
2024-01-20T08:32:36.078Z,106.03
2024-01-20T08:35:03.959Z,103.78
2024-01-20T08:37:31.963Z,108.03
2024-01-20T08:39:59.667Z,112.87
2024-01-20T08:42:28.018Z,100.38
2024-01-20T08:44:57.159Z,101.65
2024-01-20T08:47:24.876Z,112.10
2024-01-20T08:49:53.976Z,101.65
2024-01-20T08:52:21.727Z,111.05
2024-01-20T08:54:49.443Z,94.05
2024-01-20T08:57:18.024Z,105.65
2024-01-20T08:59:45.686Z,105.97
2024-01-20T09:02:14.985Z,103.32
2024-01-20T09:04:42.681Z,103.17
2024-01-20T09:07:11.021Z,96.45
2024-01-20T09:09:38.803Z,98.93
2024-01-20T09:12:08.007Z,106.28
2024-01-20T09:14:37.539Z,105.50
2024-01-20T09:17:05.515Z,101.47
2024-01-20T09:19:35.168Z,97.10
2024-01-20T09:22:02.868Z,102.43
2024-01-20T09:24:30.536Z,96.80
2024-01-20T09:26:59.022Z,97.30
2024-01-20T09:29:26.725Z,97.25
2024-01-20T09:31:56.279Z,97.70
2024-01-20T09:34:24.040Z,91.53
2024-01-20T09:36:53.996Z,97.28
2024-01-20T09:39:21.761Z,99.13
2024-01-20T09:41:50.005Z,98.60
2024-01-20T09:44:17.750Z,83.65
2024-01-20T09:46:46.021Z,97.70
2024-01-20T09:49:13.861Z,93.80
2024-01-20T09:51:47.786Z,96.40
2024-01-20T09:54:18.061Z,94.35
2024-01-20T09:56:45.719Z,91.25
2024-01-20T09:59:15.155Z,94.60
2024-01-20T10:01:44.130Z,91.82
2024-01-20T10:04:11.996Z,95.20
2024-01-20T10:06:40.095Z,89.30
2024-01-20T10:09:07.866Z,87.07
2024-01-20T10:11:37.040Z,89.53
2024-01-20T10:14:05.027Z,85.22
2024-01-20T10:16:39.174Z,85.78
2024-01-20T10:19:07.038Z,85.43
2024-01-20T10:21:40.448Z,79.38
2024-01-20T10:24:09.087Z,87.07
2024-01-20T10:26:44.860Z,87.10
2024-01-20T10:29:12.522Z,77.45
2024-01-20T10:31:41.057Z,89.95
2024-01-20T10:34:08.951Z,84.90
2024-01-20T10:36:37.180Z,86.15
2024-01-20T10:39:07.010Z,90.53
2024-01-20T10:41:37.070Z,85.88
2024-01-20T10:44:07.446Z,88.22
2024-01-20T10:46:39.333Z,86.88
2024-01-20T10:49:10.511Z,82.65
2024-01-20T10:51:39.141Z,76.50
2024-01-20T10:54:10.124Z,73.63
2024-01-20T10:56:38.369Z,75.28
2024-01-20T10:59:13.614Z,79.32
2024-01-20T11:01:43.724Z,77.93
2024-01-20T11:04:12.202Z,77.07
2024-01-20T11:06:40.061Z,73.07
2024-01-20T11:09:09.141Z,71.87
2024-01-20T11:11:57.769Z,74.27
2024-01-20T11:14:31.125Z,65.38
2024-01-20T11:16:59.733Z,69.68
2024-01-20T11:19:31.285Z,61.80
2024-01-20T11:21:59.018Z,57.10
2024-01-20T11:24:40.401Z,56.15
2024-01-20T11:27:09.191Z,56.88
2024-01-20T11:29:38.407Z,56.77
2024-01-20T11:32:07.016Z,53.47
2024-01-20T11:34:35.229Z,54.63
2024-01-20T11:37:04.018Z,51.90
2024-01-20T11:39:32.181Z,52.63
2024-01-20T11:42:03.750Z,49.50
2024-01-20T11:44:32.532Z,45.23
2024-01-20T11:47:02.159Z,47.05
2024-01-20T11:49:29.884Z,45.50
2024-01-20T11:51:58.406Z,45.85
2024-01-20T11:54:26.179Z,41.60
2024-01-20T11:56:59.175Z,41.65
2024-01-20T11:59:27.310Z,42.42
2024-01-20T12:01:56.197Z,39.08
2024-01-20T12:04:25.716Z,37.22
2024-01-20T12:06:54.242Z,35.40
2024-01-20T12:09:22.067Z,46.78
2024-01-20T12:11:49.765Z,38.42
2024-01-20T12:14:19.198Z,40.10
2024-01-20T12:16:46.884Z,32.55
2024-01-20T12:19:15.268Z,32.03
2024-01-20T12:21:45.377Z,30.90
2024-01-20T12:24:14.256Z,31.55
2024-01-20T12:26:43.140Z,32.40
2024-01-20T12:29:10.794Z,31.02
2024-01-20T12:31:38.514Z,30.48
2024-01-20T12:34:06.291Z,28.08
2024-01-20T12:36:34.150Z,31.77
2024-01-20T12:39:04.231Z,35.78
2024-01-20T12:41:31.942Z,33.00
2024-01-20T12:44:00.233Z,29.77
2024-01-20T12:46:27.941Z,30.90
2024-01-20T12:48:56.274Z,28.92
2024-01-20T12:51:24.145Z,28.88
2024-01-20T12:53:51.819Z,26.83
2024-01-20T12:56:21.259Z,26.55
2024-01-20T12:58:48.925Z,30.35
2024-01-20T13:01:18.258Z,26.75
2024-01-20T13:03:46.167Z,26.02
2024-01-20T13:06:14.321Z,29.17
2024-01-20T13:08:41.982Z,26.20
2024-01-20T13:11:10.244Z,29.05
2024-01-20T13:13:41.598Z,30.75
2024-01-20T13:16:09.478Z,21.30
2024-01-20T13:18:37.393Z,22.25
2024-01-20T13:21:05.489Z,25.37
2024-01-20T13:23:33.161Z,23.63
2024-01-20T13:26:02.416Z,22.98
2024-01-20T13:28:31.891Z,22.63
2024-01-20T13:31:01.050Z,24.77
2024-01-20T13:33:29.395Z,21.88
2024-01-20T13:35:57.071Z,26.10
2024-01-20T13:38:25.303Z,19.60
2024-01-20T13:40:53.093Z,19.05
2024-01-20T13:43:21.284Z,21.45
2024-01-20T13:45:49.053Z,19.38
2024-01-20T13:48:18.579Z,18.23
2024-01-20T13:50:46.370Z,20.00
2024-01-20T13:53:14.296Z,22.03
2024-01-20T13:55:42.006Z,18.08
2024-01-20T13:58:10.030Z,19.95
2024-01-20T14:00:38.419Z,19.83
2024-01-20T14:03:06.525Z,16.92
2024-01-20T14:08:24.309Z,17.63
2024-01-20T14:10:52.160Z,17.75
2024-01-20T14:13:20.318Z,19.67
2024-01-20T14:15:48.176Z,18.13
2024-01-20T14:18:15.951Z,16.85
2024-01-20T14:23:30.330Z,16.58
2024-01-20T14:25:58.133Z,16.17
2024-01-20T14:28:26.479Z,16.50
2024-01-20T14:30:54.193Z,14.32
2024-01-20T14:33:22.502Z,12.48
2024-01-20T14:35:50.349Z,15.77
2024-01-20T14:38:18.368Z,15.32
2024-01-20T14:40:47.404Z,14.90
2024-01-20T14:43:15.350Z,15.02
2024-01-20T14:45:43.104Z,14.63
2024-01-20T14:48:12.541Z,12.60
2024-01-20T14:50:40.326Z,16.92
2024-01-20T14:53:08.373Z,16.25
2024-01-20T14:55:36.316Z,15.23
2024-01-20T14:58:06.373Z,14.38
2024-01-20T15:00:34.053Z,14.13
2024-01-20T15:03:02.481Z,14.13
2024-01-20T15:05:30.293Z,17.38
2024-01-20T15:07:58.398Z,13.38
2024-01-20T15:10:26.029Z,14.05
2024-01-20T15:12:54.418Z,13.95
2024-01-20T15:15:23.555Z,14.75
2024-01-20T15:17:51.442Z,14.02
2024-01-20T15:20:22.097Z,15.55
2024-01-20T15:22:51.397Z,16.35
2024-01-20T15:25:19.712Z,14.43
2024-01-20T15:27:49.579Z,19.67
2024-01-20T15:30:17.395Z,14.20
2024-01-20T15:32:46.543Z,12.93
2024-01-20T15:35:14.369Z,17.15
2024-01-20T15:37:42.037Z,15.60
2024-01-20T15:40:10.682Z,15.23
2024-01-20T15:42:38.492Z,13.57
2024-01-20T15:45:07.222Z,13.02
2024-01-20T15:47:34.922Z,15.57
2024-01-20T15:50:05.470Z,14.45
2024-01-20T15:52:33.260Z,12.07
2024-01-20T15:55:01.452Z,13.13
2024-01-20T15:57:29.132Z,11.57
2024-01-20T15:59:57.453Z,11.68
2024-01-20T16:02:25.715Z,11.68
2024-01-20T16:04:53.440Z,14.65
2024-01-20T16:07:22.697Z,11.63
2024-01-20T16:09:50.520Z,11.57
2024-01-20T16:12:18.319Z,14.47
2024-01-20T16:14:46.465Z,12.63
2024-01-20T16:17:14.151Z,12.73
2024-01-20T16:19:42.533Z,9.38
2024-01-20T16:22:10.220Z,12.63
2024-01-20T16:24:39.429Z,13.70
2024-01-20T16:27:07.475Z,13.80
2024-01-20T16:29:35.195Z,14.50
2024-01-20T16:32:03.316Z,16.00
2024-01-20T16:34:31.125Z,15.60
2024-01-20T16:36:59.495Z,14.65
2024-01-20T16:39:27.186Z,16.48
2024-01-20T16:41:56.935Z,12.80
2024-01-20T16:44:25.486Z,13.57
2024-01-20T16:46:53.847Z,13.63
2024-01-20T16:49:22.639Z,14.30
2024-01-20T16:51:50.439Z,14.40
2024-01-20T16:54:18.569Z,12.15
2024-01-20T16:56:46.268Z,13.82
2024-01-20T16:59:15.493Z,13.25
2024-01-20T17:01:43.188Z,11.18
2024-01-20T17:04:11.858Z,10.17
2024-01-20T17:06:39.654Z,10.82
2024-01-20T17:09:07.548Z,13.35
2024-01-20T17:11:35.237Z,10.23
2024-01-20T17:14:05.542Z,12.63
2024-01-20T17:16:35.247Z,12.02
2024-01-20T17:19:05.584Z,15.02
2024-01-20T17:21:34.380Z,14.02
2024-01-20T17:24:02.671Z,14.50
2024-01-20T17:26:31.119Z,13.80
2024-01-20T17:28:59.533Z,13.65
2024-01-20T17:31:29.793Z,12.30
2024-01-20T17:33:59.657Z,13.20
2024-01-20T17:36:27.407Z,12.65
2024-01-20T17:38:57.552Z,13.48
2024-01-20T17:41:25.261Z,12.40
2024-01-20T17:43:53.560Z,12.43
2024-01-20T17:46:21.190Z,14.05
2024-01-20T17:48:49.697Z,14.18
2024-01-20T17:51:18.936Z,13.48
2024-01-20T17:53:47.563Z,17.15
2024-01-20T17:56:15.346Z,16.05
2024-01-20T17:58:43.576Z,16.35
2024-01-20T18:01:18.835Z,17.30
2024-01-20T18:03:47.663Z,15.43
2024-01-20T18:06:16.382Z,16.88
2024-01-20T18:08:46.570Z,14.13
2024-01-20T18:11:14.305Z,17.05
2024-01-20T18:13:42.565Z,19.35
2024-01-20T18:16:10.305Z,18.20
2024-01-20T18:18:38.186Z,20.25
2024-01-20T18:21:06.643Z,17.45
2024-01-20T18:23:34.330Z,18.38
2024-01-20T18:26:03.326Z,17.58
2024-01-20T18:28:31.600Z,19.13
2024-01-20T18:31:00.682Z,19.90
2024-01-20T18:33:29.641Z,20.23
2024-01-20T18:35:57.475Z,20.15
2024-01-20T18:38:25.609Z,19.45
2024-01-20T18:40:53.301Z,18.58
2024-01-20T18:43:22.593Z,24.63
2024-01-20T18:45:50.233Z,21.83
2024-01-20T18:48:18.731Z,22.58
2024-01-20T18:50:46.747Z,20.50
2024-01-20T18:53:14.610Z,19.58
2024-01-20T18:55:42.384Z,20.75
2024-01-20T18:58:12.622Z,20.33
2024-01-20T19:00:42.109Z,18.40
2024-01-20T19:03:10.968Z,21.02
2024-01-20T19:05:39.377Z,24.17
2024-01-20T19:08:07.635Z,22.48
2024-01-20T19:10:35.242Z,19.70
2024-01-20T19:13:03.637Z,23.60
2024-01-20T19:15:31.555Z,21.52
2024-01-20T19:18:01.758Z,19.10
2024-01-20T19:20:30.216Z,18.63
2024-01-20T19:22:58.809Z,20.60
2024-01-20T19:25:26.955Z,18.37
2024-01-20T19:27:56.418Z,18.80
2024-01-20T19:30:25.379Z,19.52
2024-01-20T19:32:53.215Z,19.52
2024-01-20T19:35:23.677Z,17.33
2024-01-20T19:37:51.405Z,16.70
2024-01-20T19:40:19.409Z,17.45
2024-01-20T19:42:47.700Z,16.00
2024-01-20T19:45:38.459Z,20.73
2024-01-20T19:48:04.806Z,18.63
2024-01-20T19:50:33.985Z,20.83
2024-01-20T19:53:02.694Z,19.23
2024-01-20T19:55:30.568Z,16.58
2024-01-20T19:57:58.745Z,18.08
2024-01-20T20:00:26.506Z,19.92
2024-01-20T20:03:00.791Z,20.73
2024-01-20T20:05:28.491Z,20.02
2024-01-20T20:07:57.703Z,20.63
2024-01-20T20:10:28.163Z,19.23
2024-01-20T20:12:56.714Z,19.17
2024-01-20T20:15:24.525Z,19.88
2024-01-20T20:17:52.263Z,18.17
2024-01-20T20:20:24.717Z,19.33
2024-01-20T20:22:52.509Z,19.67
2024-01-20T20:25:21.726Z,19.08
2024-01-20T20:27:49.502Z,17.83
2024-01-20T20:30:17.921Z,19.33
2024-01-20T20:32:46.606Z,17.42
2024-01-20T20:35:15.744Z,18.17
2024-01-20T20:37:43.417Z,16.25
2024-01-20T20:40:12.737Z,17.40
2024-01-20T20:42:41.843Z,21.17
2024-01-20T20:45:10.757Z,19.15
2024-01-20T20:47:38.557Z,19.95
2024-01-20T20:50:07.884Z,20.75
2024-01-20T20:52:35.743Z,17.20
2024-01-20T20:55:03.427Z,18.40
2024-01-20T20:57:42.879Z,19.33
2024-01-20T21:00:15.981Z,20.85
2024-01-20T21:02:45.583Z,19.27
2024-01-20T21:05:18.060Z,17.13
2024-01-20T21:07:46.171Z,18.92
2024-01-20T21:10:15.554Z,17.88
2024-01-20T21:12:45.870Z,15.93
2024-01-20T21:15:14.130Z,16.27
2024-01-20T21:17:42.897Z,16.40
2024-01-20T21:20:11.735Z,19.35
2024-01-20T21:22:39.808Z,16.77
2024-01-20T21:25:08.993Z,17.20
2024-01-20T21:27:36.671Z,15.60
2024-01-20T21:30:06.811Z,18.23
2024-01-20T21:32:34.528Z,21.05
2024-01-20T21:35:02.908Z,16.67
2024-01-20T21:37:30.788Z,15.30
2024-01-20T21:39:58.805Z,15.45
2024-01-20T21:42:26.478Z,13.20
2024-01-20T21:44:57.949Z,12.73
2024-01-20T21:47:48.890Z,11.70
2024-01-20T21:50:16.693Z,12.25
2024-01-20T21:52:44.796Z,13.38
2024-01-20T21:55:12.480Z,16.27
2024-01-20T21:57:42.940Z,13.15
2024-01-20T22:00:11.484Z,14.13
2024-01-20T22:02:39.924Z,11.68
2024-01-20T22:05:09.472Z,13.32
2024-01-20T22:07:36.853Z,12.68
2024-01-20T22:10:06.000Z,15.13
2024-01-20T22:12:33.933Z,12.63
2024-01-20T22:15:01.835Z,12.90
2024-01-20T22:17:29.507Z,12.30
2024-01-20T22:19:57.726Z,12.63
2024-01-20T22:22:27.845Z,12.65
2024-01-20T22:24:55.552Z,14.07
2024-01-20T22:27:23.891Z,15.03
2024-01-20T22:29:51.574Z,11.38
2024-01-20T22:32:19.255Z,13.63
2024-01-20T22:34:47.926Z,11.20
2024-01-20T22:37:15.720Z,12.52
2024-01-20T22:39:44.943Z,13.40
2024-01-20T22:42:12.691Z,14.88
2024-01-20T22:44:40.326Z,15.50
2024-01-20T22:47:08.183Z,13.18
2024-01-20T22:49:36.920Z,11.48
2024-01-20T22:52:05.853Z,12.43
2024-01-20T22:54:34.897Z,11.30
2024-01-20T22:57:05.854Z,10.97
2024-01-20T22:59:33.888Z,11.75
2024-01-20T23:02:01.589Z,10.70
2024-01-20T23:04:29.647Z,10.90
2024-01-20T23:06:57.923Z,13.05
2024-01-20T23:09:27.393Z,10.25
2024-01-20T23:11:55.910Z,10.80
2024-01-20T23:14:25.242Z,11.05
2024-01-20T23:16:53.889Z,13.63
2024-01-20T23:19:21.635Z,11.00
2024-01-20T23:21:49.327Z,12.15
2024-01-20T23:24:17.975Z,10.00
2024-01-20T23:26:46.064Z,10.10
2024-01-20T23:29:13.710Z,11.88
2024-01-20T23:31:42.909Z,9.77
2024-01-20T23:34:11.273Z,11.77
2024-01-20T23:36:39.125Z,10.50
2024-01-20T23:39:16.954Z,8.95
2024-01-20T23:41:44.623Z,9.07
2024-01-20T23:44:12.319Z,12.63
2024-01-20T23:46:40.981Z,8.73
2024-01-20T23:49:11.631Z,11.38
2024-01-20T23:51:39.974Z,10.48
2024-01-20T23:54:07.720Z,11.65
2024-01-20T23:56:35.942Z,8.33
2024-01-20T23:59:04.027Z,9.70
